Skip to main content.
 TIME   TEMPERATURE   WINDSPEED   DIRECTION   HUMIDITY   BAROMETER   RAINFALL 
2:26 21.0°C (69.8°F) 9.3 kmh (5.8 mph) WNW 77% 1010.8hPa (29.85 inHg) 0.0mm (0.00 in.)
1:26 22.0°C (71.6 °F) 7.4 kmh (4.6 mph) WNW 73% 1011.9hPa (29.88 inHg) 0.0mm (0.00 in.)
0:26 22.0°C (71.6 °F) 13.0 kmh (8.1 mph) WNW 78% 1011.9hPa (29.88 inHg) 0.0mm (0.00 in.)
23:25 23.0°C (73.4 °F) 13.0 kmh (8.1 mph) WNW 73% 1011.9hPa (29.88 inHg) 0.0mm (0.00 in.)
22:25 22.0°C (71.6 °F) 14.8 kmh (9.2 mph) NW 83% 1010.8hPa (29.85 inHg) 0.0mm (0.00 in.)
21:23 23.0°C (73.4 °F) 13.0 kmh (8.1 mph) NW 78% 1010.8hPa (29.85 inHg) 0.0mm (0.00 in.)
20:23 23.0°C (73.4 °F) 9.3 kmh (5.8 mph) WNW 78% 1010.2hPa (29.83 inHg) 0.0mm (0.00 in.)
19:23 24.0°C (75.2 °F) 9.3 kmh (5.8 mph) WNW 73% 1010.2hPa (29.83 inHg) 0.0mm (0.00 in.)
18:23 25.0°C (77.0 °F) 18.5 kmh (11.5 mph) NNW 73% 1009.1hPa (29.80 inHg) 0.0mm (0.00 in.)
17:23 26.0°C (78.8 °F) 18.5 kmh (11.5 mph) WNW 69% 1010.2hPa (29.83 inHg) 0.0mm (0.00 in.)
16:23 26.0°C (78.8 °F) 22.2 kmh (13.8 mph) WNW 69% 1010.2hPa (29.83 inHg) 0.0mm (0.00 in.)
15:23 26.0°C (78.8 °F) 22.2 kmh (13.8 mph) WNW 69% 1010.2hPa (29.83 inHg) 0.0mm (0.00 in.)
14:23 26.0°C (78.8 °F) 18.5 kmh (11.5 mph) WNW 73% 1010.2hPa (29.83 inHg) 0.0mm (0.00 in.)
13:23 26.0°C (78.8 °F) 22.2 kmh (13.8 mph) W 73% 1010.8hPa (29.85 inHg) 0.0mm (0.00 in.)
12:23 27.0°C (80.6 °F) 20.4 kmh (12.7 mph) WNW 69% 1010.8hPa (29.85 inHg) 0.0mm (0.00 in.)
11:23 27.0°C (80.6 °F) 24.1 kmh (15.0 mph) W 65% 1010.8hPa (29.85 inHg) 0.0mm (0.00 in.)
10:23 27.0°C (80.6 °F) 22.2 kmh (13.8 mph) W 65% 1010.8hPa (29.85 inHg) 0.0mm (0.00 in.)
9:17 26.0°C (78.8 °F) 18.5 kmh (11.5 mph) W 69% 1010.2hPa (29.83 inHg) 0.0mm (0.00 in.)
8:17 24.0°C (75.2 °F) 13.0 kmh (8.1 mph) W 78% 1010.2hPa (29.83 inHg) 0.0mm (0.00 in.)
7:17 23.0°C (73.4 °F) 9.3 kmh (5.8 mph) W 78% 1009.1hPa (29.80 inHg) 0.0mm (0.00 in.)
6:17 24.0°C (75.2 °F) 7.4 kmh (4.6 mph) WNW 73% 1010.2hPa (29.83 inHg) 0.0mm (0.00 in.)
5:17 23.0°C (73.4 °F) 5.6 kmh (3.5 mph) W 83% 1010.2hPa (29.83 inHg) 0.0mm (0.00 in.)
4:17 24.0°C (75.2 °F) 9.3 kmh (5.8 mph) NW 78% 1010.2hPa (29.83 inHg) 0.0mm (0.00 in.)
3:17 24.0°C (75.2 °F) 13.0 kmh (8.1 mph) NW 83% 1010.2hPa (29.83 inHg) 0.0mm (0.00 in.)